createdAt,value
2023-03-25T00:01:46.000Z,2.3
2023-03-25T00:05:19.000Z,4
2023-03-25T00:08:51.000Z,3.3
2023-03-25T00:11:43.000Z,1.4
2023-03-25T00:15:15.000Z,3.3
2023-03-25T00:18:48.000Z,1.7
2023-03-25T00:22:21.000Z,2
2023-03-25T00:25:53.000Z,1.7
2023-03-25T00:29:26.000Z,2.6
2023-03-25T00:32:58.000Z,3
2023-03-25T00:36:31.000Z,2.2
2023-03-25T00:40:04.000Z,3.1
2023-03-25T00:43:36.000Z,4.1
2023-03-25T00:47:09.000Z,1.4
2023-03-25T00:50:00.000Z,2.1
2023-03-25T00:53:33.000Z,1.4
2023-03-25T00:57:05.000Z,2.5
2023-03-25T01:00:38.000Z,1.9
2023-03-25T01:04:11.000Z,2.7
2023-03-25T01:07:44.000Z,1.8
2023-03-25T01:11:16.000Z,1
2023-03-25T01:14:49.000Z,2.3
2023-03-25T01:18:22.000Z,2
2023-03-25T01:21:54.000Z,1
2023-03-25T01:25:27.000Z,2.6
2023-03-25T01:28:18.000Z,2
2023-03-25T01:31:51.000Z,2.9
2023-03-25T01:35:23.000Z,3
2023-03-25T01:38:56.000Z,2.7
2023-03-25T01:42:28.000Z,2.1
2023-03-25T01:46:01.000Z,2.3
2023-03-25T01:49:34.000Z,1.6
2023-03-25T01:53:07.000Z,2
2023-03-25T01:56:39.000Z,3.7
2023-03-25T02:00:12.000Z,1.5
2023-03-25T02:03:45.000Z,2.7
2023-03-25T02:06:36.000Z,2.7
2023-03-25T02:10:08.000Z,5.3
2023-03-25T02:13:41.000Z,2.9
2023-03-25T02:17:14.000Z,2.1
2023-03-25T02:20:46.000Z,3.6
2023-03-25T02:24:19.000Z,3.9
2023-03-25T02:27:52.000Z,5.4
2023-03-25T02:31:24.000Z,2.6
2023-03-25T02:34:57.000Z,3.8
2023-03-25T02:38:30.000Z,3.8
2023-03-25T02:42:02.000Z,4.8
2023-03-25T02:44:54.000Z,1.9
2023-03-25T02:48:26.000Z,3.5
2023-03-25T02:51:59.000Z,6.5
2023-03-25T02:55:32.000Z,4.2
2023-03-25T02:59:05.000Z,6.2
2023-03-25T03:02:37.000Z,3.1
2023-03-25T03:06:10.000Z,5.4
2023-03-25T03:09:43.000Z,8.3
2023-03-25T03:13:15.000Z,6
2023-03-25T03:16:48.000Z,4.9
2023-03-25T03:20:21.000Z,4
2023-03-25T03:23:12.000Z,2.8
2023-03-25T03:26:44.000Z,2.5
2023-03-25T03:30:17.000Z,5.5
2023-03-25T03:34:05.000Z,3.9
2023-03-25T03:37:38.000Z,4.3
2023-03-25T03:41:10.000Z,3.9
2023-03-25T03:44:43.000Z,3.7
2023-03-25T03:48:16.000Z,1.6
2023-03-25T03:51:49.000Z,2.2
2023-03-25T03:55:21.000Z,4.8
2023-03-25T03:58:54.000Z,4.7
2023-03-25T04:01:45.000Z,5.2
2023-03-25T04:05:18.000Z,4.2
2023-03-25T04:08:50.000Z,4.4
2023-03-25T04:12:23.000Z,4.8
2023-03-25T04:15:56.000Z,5.1
2023-03-25T04:19:28.000Z,4.6
2023-03-25T04:23:01.000Z,5.7
2023-03-25T04:26:34.000Z,5.8
2023-03-25T04:30:06.000Z,5.6
2023-03-25T04:33:39.000Z,3.9
2023-03-25T04:37:12.000Z,6.1
2023-03-25T04:40:03.000Z,5
2023-03-25T04:43:36.000Z,7.1
2023-03-25T04:47:09.000Z,7.5
2023-03-25T04:50:41.000Z,5.2
2023-03-25T04:54:14.000Z,4.2
2023-03-25T04:57:47.000Z,5.3
2023-03-25T05:01:19.000Z,4
2023-03-25T05:04:52.000Z,6.8
2023-03-25T05:08:25.000Z,3.4
2023-03-25T05:11:58.000Z,5.4
2023-03-25T05:15:30.000Z,3.5
2023-03-25T05:18:22.000Z,5.8
2023-03-25T05:21:54.000Z,4.5
2023-03-25T05:25:27.000Z,2.3
2023-03-25T05:28:59.000Z,1.8
2023-03-25T05:32:32.000Z,1.5
2023-03-25T05:36:05.000Z,1.3
2023-03-25T05:39:38.000Z,0.7
2023-03-25T05:43:11.000Z,1
2023-03-25T05:46:43.000Z,1.5
2023-03-25T05:50:16.000Z,1.8
2023-03-25T05:53:49.000Z,1.5
2023-03-25T05:56:40.000Z,4
2023-03-25T06:00:12.000Z,3.7
2023-03-25T06:03:49.000Z,6.9
2023-03-25T06:07:22.000Z,3.8
2023-03-25T06:10:54.000Z,12.8
2023-03-25T06:14:27.000Z,3.4
2023-03-25T06:18:00.000Z,2.6
2023-03-25T06:21:32.000Z,3.3
2023-03-25T06:25:05.000Z,3.8
2023-03-25T06:28:38.000Z,3
2023-03-25T06:32:10.000Z,4.1
2023-03-25T06:35:01.000Z,2.1
2023-03-25T06:38:34.000Z,2.8
2023-03-25T06:42:07.000Z,7.9
2023-03-25T06:45:39.000Z,4.4
2023-03-25T06:49:12.000Z,3.4
2023-03-25T06:52:44.000Z,3.1
2023-03-25T06:56:17.000Z,2.4
2023-03-25T06:59:50.000Z,3.4
2023-03-25T07:03:23.000Z,3.1
2023-03-25T07:06:55.000Z,2.5
2023-03-25T07:10:28.000Z,2.2
2023-03-25T07:13:19.000Z,4.4
2023-03-25T07:16:52.000Z,3.6
2023-03-25T07:20:24.000Z,5.9
2023-03-25T07:23:57.000Z,4.6
2023-03-25T07:27:29.000Z,4.8
2023-03-25T07:31:02.000Z,4.4
2023-03-25T07:34:35.000Z,5.8
2023-03-25T07:38:07.000Z,4.4
2023-03-25T07:41:40.000Z,5.9
2023-03-25T07:45:12.000Z,2.8
2023-03-25T07:48:45.000Z,5.6
2023-03-25T07:51:37.000Z,5
2023-03-25T07:55:09.000Z,3.5
2023-03-25T07:58:42.000Z,4.5
2023-03-25T08:02:15.000Z,10.9
2023-03-25T08:05:48.000Z,5.6
2023-03-25T08:09:20.000Z,5.5
2023-03-25T08:12:53.000Z,7
2023-03-25T08:16:25.000Z,6
2023-03-25T08:19:58.000Z,5.4
2023-03-25T08:23:31.000Z,4.4
2023-03-25T08:27:03.000Z,5
2023-03-25T08:30:00.000Z,6.2
2023-03-25T08:33:32.000Z,5.1
2023-03-25T08:37:05.000Z,6
2023-03-25T08:40:37.000Z,4.8
2023-03-25T08:44:10.000Z,3.8
2023-03-25T08:47:42.000Z,7
2023-03-25T08:51:15.000Z,5.9
2023-03-25T08:54:48.000Z,8.2
2023-03-25T08:58:20.000Z,5.5
2023-03-25T09:01:53.000Z,6.8
2023-03-25T09:05:26.000Z,5.4
2023-03-25T09:08:18.000Z,4.7
2023-03-25T09:11:50.000Z,6.5
2023-03-25T09:15:23.000Z,10.3
2023-03-25T09:18:56.000Z,6.4
2023-03-25T09:22:28.000Z,7
2023-03-25T09:26:01.000Z,7.9
2023-03-25T09:29:34.000Z,7.8
2023-03-25T09:33:06.000Z,9.5
2023-03-25T09:36:40.000Z,8.8
2023-03-25T09:40:12.000Z,5.2
2023-03-25T09:43:45.000Z,9.5
2023-03-25T09:46:36.000Z,11.4
2023-03-25T09:50:09.000Z,7.9
2023-03-25T09:53:41.000Z,9.9
2023-03-25T09:57:14.000Z,12.6
2023-03-25T10:00:47.000Z,9.6
2023-03-25T10:04:20.000Z,16.4
2023-03-25T10:07:52.000Z,9.2
2023-03-25T10:11:25.000Z,9.8
2023-03-25T10:14:57.000Z,15.5
2023-03-25T10:18:30.000Z,3.3
2023-03-25T10:22:03.000Z,2.3
2023-03-25T10:24:54.000Z,1.8
2023-03-25T10:28:26.000Z,2.2
2023-03-25T10:31:59.000Z,1.1
2023-03-25T10:35:32.000Z,2.3
2023-03-25T10:39:04.000Z,1.5
2023-03-25T10:42:37.000Z,0.5
2023-03-25T10:46:10.000Z,1.2
2023-03-25T10:49:42.000Z,0.7
2023-03-25T10:53:15.000Z,0.7
2023-03-25T10:56:48.000Z,1.1
2023-03-25T11:00:21.000Z,0.4
2023-03-25T11:03:12.000Z,1.5
2023-03-25T11:06:44.000Z,2.1
2023-03-25T11:10:24.000Z,0.4
2023-03-25T11:13:56.000Z,0.5
2023-03-25T11:17:29.000Z,0.5
2023-03-25T11:21:02.000Z,9.1
2023-03-25T11:24:34.000Z,5.1
2023-03-25T11:28:07.000Z,2.6
2023-03-25T11:31:40.000Z,1.9
2023-03-25T11:35:13.000Z,2
2023-03-25T11:38:45.000Z,2.1
2023-03-25T11:41:36.000Z,2.4
2023-03-25T11:45:09.000Z,2.1
2023-03-25T11:48:42.000Z,1.5
2023-03-25T11:52:14.000Z,2.7
2023-03-25T11:55:47.000Z,2.7
2023-03-25T11:59:19.000Z,2.6
2023-03-25T12:02:52.000Z,3.5
2023-03-25T12:06:25.000Z,5.7
2023-03-25T12:09:58.000Z,2.7
2023-03-25T12:13:30.000Z,3.8
2023-03-25T12:17:03.000Z,2.9
2023-03-25T12:19:54.000Z,3
2023-03-25T12:23:27.000Z,4
2023-03-25T12:26:59.000Z,2.2
2023-03-25T12:30:32.000Z,3.3
2023-03-25T12:34:05.000Z,2.1
2023-03-25T12:37:37.000Z,2.3
2023-03-25T12:41:10.000Z,1.8
2023-03-25T12:44:43.000Z,1.9
2023-03-25T12:48:16.000Z,5
2023-03-25T12:51:48.000Z,5.7
2023-03-25T12:55:21.000Z,8.2
2023-03-25T12:58:12.000Z,5.8
2023-03-25T13:01:45.000Z,5.5
2023-03-25T13:05:17.000Z,4.2
2023-03-25T13:08:50.000Z,4.4
2023-03-25T13:12:23.000Z,5.7
2023-03-25T13:15:55.000Z,5.5
2023-03-25T13:19:28.000Z,4.5
2023-03-25T13:23:11.000Z,6.1
2023-03-25T13:26:44.000Z,2.9
2023-03-25T13:30:17.000Z,6
2023-03-25T13:33:49.000Z,5
2023-03-25T13:36:41.000Z,6
2023-03-25T13:40:13.000Z,5.5
2023-03-25T13:43:46.000Z,2.8
2023-03-25T13:47:18.000Z,3.2
2023-03-25T13:50:51.000Z,1.9
2023-03-25T13:54:24.000Z,5.4
2023-03-25T13:57:56.000Z,3
2023-03-25T14:01:29.000Z,4.1
2023-03-25T14:05:02.000Z,3.5
2023-03-25T14:08:34.000Z,4.9
2023-03-25T14:12:07.000Z,1.8
2023-03-25T14:14:58.000Z,5.5
2023-03-25T14:18:31.000Z,4
2023-03-25T14:22:04.000Z,5.6
2023-03-25T14:25:36.000Z,2.5
2023-03-25T14:29:09.000Z,3
2023-03-25T14:32:42.000Z,3.5
2023-03-25T14:36:14.000Z,4.5
2023-03-25T14:39:47.000Z,5.4
2023-03-25T14:43:20.000Z,3.1
2023-03-25T14:46:52.000Z,7
2023-03-25T14:50:25.000Z,3.6
2023-03-25T14:53:16.000Z,4.6
2023-03-25T14:56:49.000Z,3.4
2023-03-25T15:00:22.000Z,3.8
2023-03-25T15:03:55.000Z,5.7
2023-03-25T15:07:27.000Z,4.6
2023-03-25T15:11:00.000Z,5.8
2023-03-25T15:14:32.000Z,4.8
2023-03-25T15:18:05.000Z,5.6
2023-03-25T15:21:38.000Z,5.5
2023-03-25T15:25:11.000Z,4.8
2023-03-25T15:28:43.000Z,4.8
2023-03-25T15:31:35.000Z,4.3
2023-03-25T15:35:07.000Z,4.3
2023-03-25T15:38:40.000Z,5.6
2023-03-25T15:42:13.000Z,4.2
2023-03-25T15:45:59.000Z,6.9
2023-03-25T15:49:32.000Z,6.2
2023-03-25T15:53:04.000Z,4.9
2023-03-25T15:56:37.000Z,5.6
2023-03-25T16:00:10.000Z,7.5
2023-03-25T16:03:43.000Z,4.3
2023-03-25T16:07:15.000Z,5.8
2023-03-25T16:10:06.000Z,3.8
2023-03-25T16:13:39.000Z,3.6
2023-03-25T16:17:12.000Z,5.2
2023-03-25T16:20:44.000Z,4.5
2023-03-25T16:24:17.000Z,3.9
2023-03-25T16:27:53.000Z,5.2
2023-03-25T16:31:25.000Z,5
2023-03-25T16:35:00.000Z,9.2
2023-03-25T16:38:32.000Z,4.3
2023-03-25T16:42:05.000Z,6.3
2023-03-25T16:45:38.000Z,7.8
2023-03-25T16:48:29.000Z,3.4
2023-03-25T16:52:02.000Z,4.7
2023-03-25T16:55:34.000Z,6.1
2023-03-25T16:59:07.000Z,5.5
2023-03-25T17:02:40.000Z,6.1
2023-03-25T17:06:13.000Z,5.2
2023-03-25T17:09:45.000Z,6.6
2023-03-25T17:13:18.000Z,7.8
2023-03-25T17:16:50.000Z,10.3
2023-03-25T17:20:23.000Z,7.8
2023-03-25T17:23:56.000Z,12.6
2023-03-25T17:26:47.000Z,8
2023-03-25T17:30:20.000Z,5.8
2023-03-25T17:33:52.000Z,5
2023-03-25T17:37:25.000Z,8
2023-03-25T17:41:00.000Z,4.9
2023-03-25T17:44:33.000Z,6.6
2023-03-25T17:48:05.000Z,5.1
2023-03-25T17:51:38.000Z,7.3
2023-03-25T17:55:10.000Z,5.6
2023-03-25T17:58:43.000Z,6.1
2023-03-25T18:02:16.000Z,4.5
2023-03-25T18:05:07.000Z,6.6
2023-03-25T18:08:39.000Z,5.6
2023-03-25T18:12:12.000Z,5.9
2023-03-25T18:15:44.000Z,6
2023-03-25T18:19:17.000Z,6.4
2023-03-25T18:22:50.000Z,3.4
2023-03-25T18:26:23.000Z,4.8
2023-03-25T18:29:56.000Z,4.6
2023-03-25T18:33:28.000Z,3.2
2023-03-25T18:37:01.000Z,4.2
2023-03-25T18:40:33.000Z,6.1
2023-03-25T18:43:25.000Z,5.4
2023-03-25T18:46:57.000Z,5.9
2023-03-25T18:50:30.000Z,5.7
2023-03-25T18:54:02.000Z,2.2
2023-03-25T18:57:35.000Z,4.2
2023-03-25T19:01:08.000Z,7.9
2023-03-25T19:04:40.000Z,3.2
2023-03-25T19:08:26.000Z,4.3
2023-03-25T19:11:58.000Z,6.8
2023-03-25T19:15:31.000Z,5.5
2023-03-25T19:19:04.000Z,6
2023-03-25T19:21:55.000Z,4.4
2023-03-25T19:25:28.000Z,3.7
2023-03-25T19:29:00.000Z,4.9
2023-03-25T19:32:33.000Z,6.4
2023-03-25T19:36:06.000Z,4.7
2023-03-25T19:39:38.000Z,5.7
2023-03-25T19:43:11.000Z,5
2023-03-25T19:46:46.000Z,6.2
2023-03-25T19:50:18.000Z,8.4
2023-03-25T19:53:51.000Z,3
2023-03-25T19:57:24.000Z,5
2023-03-25T20:00:15.000Z,4.5
2023-03-25T20:03:47.000Z,3.3
2023-03-25T20:07:20.000Z,3.6
2023-03-25T20:10:52.000Z,3.8
2023-03-25T20:14:25.000Z,3.6
2023-03-25T20:17:58.000Z,3.6
2023-03-25T20:21:30.000Z,6.4
2023-03-25T20:25:03.000Z,5.3
2023-03-25T20:28:36.000Z,8.6
2023-03-25T20:32:08.000Z,7.1
2023-03-25T20:35:41.000Z,5.5
2023-03-25T20:38:32.000Z,4.7
2023-03-25T20:42:36.000Z,4.7
2023-03-25T20:46:08.000Z,2.7
2023-03-25T20:49:41.000Z,3.1
2023-03-25T20:53:14.000Z,2.9
2023-03-25T20:56:46.000Z,4.6
2023-03-25T21:00:19.000Z,5
2023-03-25T21:03:52.000Z,4.6
2023-03-25T21:07:24.000Z,2.3
2023-03-25T21:11:05.000Z,3.1
2023-03-25T21:14:43.000Z,3.5
2023-03-25T21:17:34.000Z,4.3
2023-03-25T21:21:06.000Z,2
2023-03-25T21:24:39.000Z,3
2023-03-25T21:28:12.000Z,3
2023-03-25T21:31:44.000Z,2.8
2023-03-25T21:35:17.000Z,2.6
2023-03-25T21:38:50.000Z,2
2023-03-25T21:42:23.000Z,1.9
2023-03-25T21:45:55.000Z,4.4
2023-03-25T21:49:30.000Z,3.2
2023-03-25T21:53:03.000Z,2.4
2023-03-25T21:55:54.000Z,4.3
2023-03-25T21:59:27.000Z,2.5
2023-03-25T22:02:59.000Z,2.8
2023-03-25T22:06:32.000Z,1.6
2023-03-25T22:10:05.000Z,3.8
2023-03-25T22:13:37.000Z,4.2
2023-03-25T22:17:10.000Z,6.6
2023-03-25T22:20:43.000Z,1.7
2023-03-25T22:24:15.000Z,3.5
2023-03-25T22:27:48.000Z,1.4
2023-03-25T22:31:21.000Z,2.2
2023-03-25T22:34:12.000Z,5.6
2023-03-25T22:37:45.000Z,6.1
2023-03-25T22:41:17.000Z,5.1
2023-03-25T22:44:50.000Z,3.5
2023-03-25T22:48:22.000Z,5.3
2023-03-25T22:51:55.000Z,6.2
2023-03-25T22:55:28.000Z,3.5
2023-03-25T22:59:00.000Z,8.3
2023-03-25T23:02:33.000Z,6.5
2023-03-25T23:06:06.000Z,13.3
2023-03-25T23:09:38.000Z,9
2023-03-25T23:12:30.000Z,5.6
2023-03-25T23:16:02.000Z,10.6
2023-03-25T23:19:35.000Z,11.8
2023-03-25T23:23:08.000Z,8.7
2023-03-25T23:26:40.000Z,7.8
2023-03-25T23:30:13.000Z,5.2
2023-03-25T23:33:46.000Z,6.9
2023-03-25T23:37:18.000Z,6.9
2023-03-25T23:40:51.000Z,6.2
2023-03-25T23:44:34.000Z,9.1
2023-03-25T23:48:06.000Z,6.9
2023-03-25T23:50:58.000Z,10.2
2023-03-25T23:54:30.000Z,10.2
2023-03-25T23:58:03.000Z,12.1
